Marathon Ts — 9HA4464 — position and weather

sailwx.info

Track history (hours):
 
Tides and Currents Weather Stations Pressure Air Temp Water Temp Dewpoint Dewpoint Depression Visibility Wind Speed Wind Dir Waves Ship Positions

Marathon Ts

Last reported at 2018-Feb-12 18:51 UTC. Time now 2018-Feb-18 18:30 UTC.
Position N 37°52' W 000°14'.

Length 250 m; draft 13.2 m.

Type: Ship. MMSI: 249987000.

Date/timePositionNaut miles runAvg speedWind from/ knotsBaromVisibWave heightAir tempDewpointWater temp
2018-Feb-12 18:51N 37°52' W 000°14'512.6
2018-Feb-12 18:28N 37°48' W 000°18'612.6
2018-Feb-12 18:00N 37°43' W 000°22'612.3
2018-Feb-12 17:30N 37°38' W 000°26'612.3
2018-Feb-12 17:00N 37°33' W 000°31'612.5
2018-Feb-12 16:30N 37°29' W 000°37'612.2
2018-Feb-12 16:00N 37°25' W 000°42'612.2
2018-Feb-12 15:30N 37°21' W 000°49'612.2
2018-Feb-12 15:00N 37°17' W 000°54'612.1
2018-Feb-12 14:29N 37°12' W 000°59'612.1
2018-Feb-12 14:00N 37°09' W 001°05'21012.1
2018-Feb-11 20:40N 36°01' W 005°12'214.4
2018-Feb-11 20:31N 36°00' W 005°15'714.3
2018-Feb-11 20:01N 35°58' W 005°24'  
Track history (hours):
 
Tides and Currents Weather Stations Pressure Air Temp Water Temp Dewpoint Dewpoint Depression Visibility Wind Speed Wind Dir Waves Ship Positions

Marathon Ts

Last reported at 2018-Feb-12 18:51 UTC. Time now 2018-Feb-18 18:30 UTC.
Position N 37°52' W 000°14'.

Length 250 m; draft 13.2 m.

Type: Ship. MMSI: 249987000.

Date/timePositionNaut miles runAvg speedWind from/ knotsBaromVisibWave heightAir tempDewpointWater temp
2018-Feb-12 18:51N 37°52' W 000°14'512.6
2018-Feb-12 18:28N 37°48' W 000°18'612.6
2018-Feb-12 18:00N 37°43' W 000°22'612.3
2018-Feb-12 17:30N 37°38' W 000°26'612.3
2018-Feb-12 17:00N 37°33' W 000°31'612.5
2018-Feb-12 16:30N 37°29' W 000°37'612.2
2018-Feb-12 16:00N 37°25' W 000°42'612.2
2018-Feb-12 15:30N 37°21' W 000°49'612.2
2018-Feb-12 15:00N 37°17' W 000°54'612.1
2018-Feb-12 14:29N 37°12' W 000°59'612.1
2018-Feb-12 14:00N 37°09' W 001°05'21012.1
2018-Feb-11 20:40N 36°01' W 005°12'214.4
2018-Feb-11 20:31N 36°00' W 005°15'714.3
2018-Feb-11 20:01N 35°58' W 005°24'  

Dump ship's entire track history